Latest Weather Observations for Scone Airport

IDN60801

Issued at 10:33 pm EDT Saturday 31 January 2015 (issued every 30 minutes, with the page automatically refreshed every 10 minutes)

About weather observations | Map of weather stations | Latest weather observations for NSW | Other Formats
Station Details ID: 061363 Name: SCONE AIRPORT AWS Lat: -32.03 Lon: 150.83 Height: 221.4 m
Data from the previous 72 hours. | See also: Recent months at Scone Airport
Date/Time
EDT
Temp
°C
App
Temp
°C
Dew
Point
Rel
Hum
%
Delta-T
°C
Wind Press
QNH
hPa
Press
MSL
hPa
Rain
since 9 am
mm
Dir
 
Spd
km/h
Gust
km/h
Spd
kts
Gust
kts
31/10:30pm 18.7 16.7 8.7 52 5.3 W 9 24 5 13 1007.8 1006.6 0.0
31/10:00pm 18.6 16.7 9.1 54 5.0 NW 9 13 5 7 1007.4 1006.2 0.0
31/09:30pm 19.3 17.9 9.5 53 5.2 NW 7 11 4 6 1006.9 1005.8 0.0
31/09:00pm 20.0 19.5 9.3 50 5.7 N 2 6 1 3 1006.6 1005.5 0.0
31/08:30pm 21.5 21.2 8.7 44 6.9 CALM 0 0 0 0 1006.3 1005.2 0.0
31/08:00pm 25.3 23.6 6.0 29 10.1 WSW 4 7 2 4 1005.9 1004.8 0.0
31/07:30pm 27.2 25.9 7.6 29 10.6 W 4 7 2 4 1005.6 1004.5 0.0
31/07:00pm 27.7 24.7 7.5 28 11.0 W 13 20 7 11 1005.4 1004.2 0.0
31/06:30pm 28.3 24.5 5.8 24 11.9 WSW 15 20 8 11 1005.1 1003.9 0.0
31/06:00pm 28.5 23.8 3.4 20 12.8 WSW 17 20 9 11 1005.0 1003.8 0.0
31/05:30pm 29.1 24.9 3.9 20 12.9 W 15 24 8 13 1005.0 1003.8 0.0
31/05:00pm 28.8 23.5 2.9 19 13.1 WSW 20 30 11 16 1005.0 1003.8 0.0
31/04:30pm 28.9 24.7 3.7 20 12.9 WNW 15 22 8 12 1005.0 1003.8 0.0
31/04:00pm 28.9 23.6 3.0 19 13.1 WNW 20 33 11 18 1005.2 1004.0 0.0
31/03:30pm 29.0 26.7 5.8 23 12.3 W 7 22 4 12 1005.5 1004.4 0.0
31/03:00pm 28.7 26.1 7.9 27 11.4 NW 11 19 6 10 1005.5 1004.4 0.0
31/02:30pm 28.5 25.1 6.0 24 11.9 WNW 13 24 7 13 1005.5 1004.4 0.0
31/02:00pm 27.7 24.2 7.0 27 11.1 WNW 15 28 8 15 1005.9 1004.8 0.0
31/01:30pm 27.4 23.4 6.8 27 11.0 WNW 17 24 9 13 1006.3 1005.2 0.0
31/01:00pm 26.1 24.8 9.9 36 9.1 W 7 13 4 7 1006.6 1005.5 0.0
31/12:30pm 25.5 23.6 10.5 39 8.4 SW 11 19 6 10 1007.2 1006.0 0.0
31/12:00pm 24.0 23.0 12.3 48 6.8 E 9 15 5 8 1007.5 1006.3 0.0
31/11:30am 24.1 23.9 13.6 52 6.2 SE 7 13 4 7 1007.9 1006.7 0.0
31/11:00am 23.0 22.7 13.2 54 5.7 SSE 7 17 4 9 1008.2 1007.0 0.0
31/10:30am 22.0 21.0 12.3 54 5.6 ESE 9 13 5 7 1008.3 1007.1 0.0
31/10:00am 20.3 18.5 11.0 55 5.2 SSE 11 19 6 10 1008.4 1007.2 0.0
31/09:30am 19.8 19.3 12.6 63 4.1 ESE 7 13 4 7 1008.4 1007.2 0.0
31/09:00am 19.1 19.7 11.9 63 4.0 CALM 0 0 0 0 1008.5 1007.3 0.0
31/08:30am 16.9 17.1 10.5 66 3.4 CALM 0 0 0 0 1008.4 1007.2 0.0
31/08:00am 16.2 16.6 11.4 73 2.6 CALM 0 0 0 0 1008.5 1007.3 0.0
31/07:30am 13.3 13.5 10.7 84 1.4 CALM 0 0 0 0 1008.4 1007.2 0.0
31/07:00am 11.6 11.7 10.2 91 0.7 CALM 0 0 0 0 1008.0 1006.8 0.0
31/06:30am 9.8 8.7 8.4 91 0.7 WNW 4 7 2 4 1007.7 1006.5 0.0
31/06:00am 10.0 8.5 8.3 89 0.8 WNW 6 7 3 4 1007.4 1006.2 0.0
31/05:30am 10.3 10.1 8.9 91 0.7 CALM 0 0 0 0 1007.2 1006.0 0.0
31/05:00am 10.8 10.2 9.1 89 0.9 NE 2 6 1 3 1007.0 1005.9 0.0
31/04:30am 10.8 10.1 8.7 87 1.0 N 2 7 1 4 1006.9 1005.8 0.0
31/04:00am 11.5 10.6 9.1 85 1.2 N 4 7 2 4 1006.7 1005.6 0.0
31/03:30am 11.4 10.8 9.0 85 1.2 NW 2 7 1 4 1006.7 1005.6 0.0
31/03:00am 11.4 9.9 9.0 85 1.2 NW 7 13 4 7 1006.8 1005.7 0.0
31/02:30am 12.2 10.8 9.6 84 1.3 NE 7 11 4 6 1006.7 1005.6 0.0
31/02:00am 12.4 12.2 9.2 81 1.6 CALM 0 0 0 0 1007.2 1006.0 0.0
31/01:30am 12.5 12.4 9.3 81 1.6 CALM 0 2 0 1 1007.2 1006.0 0.0
31/01:00am 12.8 11.0 9.3 79 1.8 WNW 9 13 5 7 1007.3 1006.1 0.0
31/12:30am 13.7 12.3 9.7 77 2.1 NE 7 9 4 5 1007.3 1006.1 0.0
31/12:00am 14.5 13.7 9.5 72 2.6 NNE 4 6 2 3 1007.4 1006.2 0.0
 
Date/Time
EDT
Temp
°C
App
Temp
°C
Dew
Point
Rel
Hum
%
Delta-T
°C
Wind Press
QNH
hPa
Press
MSL
hPa
Rain
since 9 am
mm
Dir
 
Spd
km/h
Gust
km/h
Spd
kts
Gust
kts
30/11:30pm 14.9 13.2 9.7 71 2.7 ESE 9 11 5 6 1007.3 1006.1 0.0
30/11:00pm 16.4 14.8 8.6 60 4.0 WSW 7 11 4 6 1007.3 1006.1 0.0
30/10:30pm 15.6 14.2 9.5 67 3.2 WNW 7 9 4 5 1006.9 1005.8 0.0
30/10:00pm 16.0 14.6 9.7 66 3.3 WNW 7 11 4 6 1006.8 1005.7 0.0
30/09:30pm 17.5 16.7 9.7 60 4.1 NE 4 7 2 4 1006.5 1005.4 0.0
30/09:00pm 17.7 16.5 10.3 62 4.0 W 7 11 4 6 1006.3 1005.2 0.0
30/08:30pm 20.4 20.1 8.7 47 6.2 CALM 0 0 0 0 1006.0 1004.9 0.0
30/08:00pm 23.8 22.9 6.1 32 9.2 CALM 0 2 0 1 1005.8 1004.7 0.0
30/07:30pm 26.0 23.9 6.6 29 10.2 WSW 7 13 4 7 1005.4 1004.2 0.0
30/07:00pm 26.3 22.8 5.3 26 10.9 W 13 19 7 10 1005.2 1004.0 0.0
30/06:30pm 27.1 22.5 3.6 22 11.8 W 17 24 9 13 1004.9 1003.7 0.0
30/06:00pm 27.3 22.5 4.4 23 11.8 WSW 19 30 10 16 1004.9 1003.7 0.0
30/05:30pm 27.8 23.4 4.8 23 11.9 W 17 22 9 12 1004.8 1003.6 0.0
30/05:00pm 27.5 22.4 3.9 22 12.0 WSW 20 26 11 14 1005.1 1003.9 0.0
30/04:30pm 27.4 22.6 5.6 25 11.4 W 20 30 11 16 1005.3 1004.1 0.0
30/04:00pm 26.8 21.3 5.7 26 11.0 W 24 35 13 19 1005.5 1004.4 0.0
30/03:30pm 27.2 22.5 6.0 26 11.1 W 20 37 11 20 1005.8 1004.7 0.0
30/03:08pm 26.6 21.0 5.5 26 11.0 WSW 24 46 13 25 1005.9 1004.8 0.0
30/03:00pm 27.3 22.0 6.7 27 11.0 W 24 35 13 19 1006.1 1005.0 0.0
30/02:30pm 25.9 21.4 7.0 30 10.0 WSW 20 33 11 18 1006.5 1005.4 0.0
30/02:00pm 26.3 22.1 7.4 30 10.2 WSW 19 30 10 16 1006.9 1005.8 0.0
30/01:33pm 26.1 21.7 6.7 29 10.3 SSW 19 44 10 24 1007.3 1006.1 0.0
30/01:30pm 25.7 22.4 8.2 33 9.5 SSW 15 24 8 13 1007.4 1006.2 0.0
30/01:00pm 24.0 22.6 8.8 38 8.3 S 6 13 3 7 1008.0 1006.8 0.0
30/12:30pm 23.3 21.8 10.4 44 7.2 E 9 13 5 7 1008.3 1007.1 0.0
30/12:00pm 22.7 21.4 9.8 44 7.1 ENE 7 13 4 7 1008.6 1007.4 0.0
30/11:30am 21.9 19.9 8.8 43 7.0 SSE 9 13 5 7 1009.2 1008.0 0.0
30/11:00am 20.6 19.1 8.3 45 6.5 S 6 9 3 5 1009.7 1008.6 0.0
30/10:30am 20.0 18.8 8.0 46 6.3 E 4 9 2 5 1009.8 1008.7 0.0
30/10:00am 19.6 18.5 8.6 49 5.8 ESE 4 13 2 7 1010.1 1009.0 0.0
30/09:30am 18.2 17.1 10.1 59 4.4 SW 6 9 3 5 1010.5 1009.4 0.0
30/09:00am 17.2 17.0 11.9 71 2.9 NNE 4 7 2 4 1010.7 1009.6 0.0
30/08:30am 15.5 15.6 12.6 83 1.6 NW 4 7 2 4 1010.7 1009.6 0.0
30/08:00am 13.6 14.2 11.8 89 1.0 CALM 0 0 0 0 1010.7 1009.6 0.0
30/07:30am 11.8 12.2 11.2 96 0.3 CALM 0 2 0 1 1010.5 1009.4 0.0
30/07:00am 10.7 10.8 10.2 97 0.3 CALM 0 6 0 3 1010.3 1009.2 0.0
30/06:30am 10.1 10.0 9.5 96 0.3 CALM 0 0 0 0 1010.1 1009.0 0.0
30/06:00am 10.2 10.1 9.4 95 0.4 CALM 0 0 0 0 1009.9 1008.8 0.0
30/05:30am 10.6 9.5 9.8 95 0.4 WNW 6 7 3 4 1009.8 1008.7 0.0
30/05:00am 10.8 10.8 9.9 94 0.5 CALM 0 0 0 0 1009.7 1008.6 0.0
30/04:30am 11.0 11.0 9.8 92 0.6 CALM 0 0 0 0 1009.7 1008.6 0.0
30/04:00am 11.0 10.2 9.8 92 0.6 WNW 4 7 2 4 1009.8 1008.7 0.0
30/03:30am 11.4 11.5 10.0 91 0.7 CALM 0 0 0 0 1010.1 1009.0 0.0
30/03:00am 12.2 11.3 10.8 91 0.7 NNE 6 9 3 5 1010.3 1009.2 0.0
30/02:30am 12.7 11.7 10.4 86 1.2 ESE 6 7 3 4 1010.5 1009.4 0.0
30/02:00am 13.7 12.2 10.5 81 1.7 SSE 9 13 5 7 1010.7 1009.6 0.0
30/01:30am 14.3 11.8 10.9 80 1.8 S 15 17 8 9 1010.8 1009.7 0.0
30/01:00am 14.4 11.6 11.2 81 1.7 S 17 19 9 10 1011.0 1009.9 0.0
30/12:30am 15.0 12.3 11.6 80 1.8 S 17 20 9 11 1011.1 1010.0 0.0
30/12:00am 15.1 12.0 11.7 80 1.9 S 19 20 10 11 1011.2 1010.1 0.0
 
Date/Time
EDT
Temp
°C
App
Temp
°C
Dew
Point
Rel
Hum
%
Delta-T
°C
Wind Press
QNH
hPa
Press
MSL
hPa
Rain
since 9 am
mm
Dir
 
Spd
km/h
Gust
km/h
Spd
kts
Gust
kts
29/11:30pm 15.4 12.6 11.4 77 2.2 S 17 19 9 10 1011.2 1010.1 0.0
29/11:00pm 16.1 13.5 10.6 70 3.0 S 15 19 8 10 1011.0 1009.9 0.0
29/10:30pm 16.8 13.8 10.6 67 3.3 S 17 20 9 11 1011.0 1009.9 0.0
29/10:00pm 17.1 14.7 10.0 63 3.8 S 13 17 7 9 1010.9 1009.8 0.0
29/09:30pm 17.5 15.0 9.7 60 4.1 S 13 15 7 8 1010.7 1009.6 0.0
29/09:00pm 18.2 16.4 9.5 57 4.6 S 9 11 5 6 1010.4 1009.3 0.0
29/08:30pm 19.0 16.5 9.8 55 4.9 S 13 17 7 9 1010.2 1009.1 0.0
29/08:00pm 20.0 16.6 9.3 50 5.7 SE 17 22 9 12 1009.9 1008.8 0.0
29/07:30pm 21.6 19.7 10.4 49 6.2 SSE 11 13 6 7 1009.4 1008.2 0.0
29/07:00pm 23.1 21.3 10.9 46 6.8 SE 11 15 6 8 1009.1 1007.9 0.0
29/06:30pm 23.5 21.6 10.6 44 7.2 SE 11 15 6 8 1008.9 1007.7 0.0
29/06:00pm 23.8 21.7 12.4 48 6.6 SE 15 19 8 10 1008.8 1007.6 0.0
29/05:30pm 23.0 19.8 10.1 44 7.1 SE 17 22 9 12 1008.8 1007.6 0.0
29/05:00pm 23.5 20.6 10.9 45 7.1 SE 17 24 9 13 1008.9 1007.7 0.0
29/04:30pm 23.6 21.3 10.3 43 7.4 ESE 13 19 7 10 1009.2 1008.0 0.0
29/04:00pm 23.8 22.4 12.1 48 6.7 ESE 11 19 6 10 1009.3 1008.1 0.0
29/03:30pm 24.2 23.3 10.8 43 7.5 NNE 6 13 3 7 1009.6 1008.5 0.0
29/03:00pm 23.1 21.7 12.1 50 6.3 NE 11 17 6 9 1010.0 1008.9 0.0
29/02:30pm 22.8 22.0 11.2 48 6.5 ENE 6 9 3 5 1010.5 1009.4 0.0
29/02:00pm 21.8 20.5 10.0 47 6.5 NE 7 13 4 7 1011.0 1009.9 0.0
29/01:30pm 22.2 21.4 11.6 51 6.0 WSW 7 13 4 7 1011.3 1010.2 0.0
29/01:00pm 21.4 20.4 10.9 51 5.8 SSE 7 11 4 6 1011.9 1010.7 0.0
29/12:30pm 21.1 20.2 11.2 53 5.5 SSE 7 13 4 7 1012.2 1011.0 0.0
29/12:00pm 20.6 19.7 11.5 56 5.1 SSE 7 13 4 7 1012.6 1011.4 0.0
29/11:30am 19.6 17.7 10.6 56 4.9 S 11 17 6 9 1012.7 1011.5 0.0
29/11:00am 19.6 18.2 10.9 57 4.8 SE 9 15 5 8 1013.0 1011.8 0.0
29/10:30am 18.7 17.6 11.8 64 3.8 S 9 17 5 9 1013.2 1012.0 0.0
29/10:00am 18.3 16.1 10.7 61 4.1 SSE 13 26 7 14 1013.3 1012.1 0.0
29/09:30am 17.0 16.1 11.5 70 3.0 SSE 7 13 4 7 1013.4 1012.2 0.0
29/09:00am 16.6 14.5 11.1 70 3.0 SSE 13 17 7 9 1013.5 1012.4 1.4
29/08:30am 16.0 15.5 12.2 78 2.1 W 6 9 3 5 1013.6 1012.5 1.4
29/08:00am 15.3 16.1 12.4 83 1.6 CALM 0 0 0 0 1013.4 1012.2 1.4
29/07:30am 14.8 15.6 12.7 87 1.2 CALM 0 6 0 3 1013.2 1012.0 1.4
29/07:00am 14.5 14.0 12.2 86 1.3 S 6 7 3 4 1012.7 1011.5 1.4
29/06:30am 14.5 15.3 12.5 88 1.1 CALM 0 0 0 0 1012.4 1011.2 1.4
29/06:00am 14.5 15.4 13.0 91 0.8 CALM 0 0 0 0 1012.1 1010.9 1.4
29/05:30am 14.4 15.5 13.6 95 0.5 CALM 0 0 0 0 1012.1 1010.9 1.4
29/05:00am 14.3 15.2 12.9 91 0.8 CALM 0 0 0 0 1011.9 1010.7 1.4
29/04:30am 14.9 14.8 13.4 91 0.8 SE 6 6 3 3 1011.6 1010.5 1.4
29/04:00am 15.1 15.2 14.0 93 0.6 SE 6 7 3 4 1011.7 1010.6 1.4
29/03:30am 15.0 14.8 13.7 92 0.7 SE 7 11 4 6 1011.7 1010.6 1.4
29/03:00am 15.9 15.7 14.8 93 0.6 SSE 9 11 5 6 1012.0 1010.8 1.4
29/02:30am 15.9 16.1 14.6 92 0.8 S 7 9 4 5 1012.3 1011.1 1.4
29/02:00am 15.9 16.2 14.4 91 0.9 S 6 7 3 4 1012.4 1011.2 1.4
29/01:30am 15.9 17.3 14.3 90 0.9 CALM 0 0 0 0 1012.6 1011.4 1.4
29/01:00am 16.0 16.3 14.5 91 0.9 SSE 6 7 3 4 1013.1 1011.9 1.4
29/12:30am 15.8 15.8 14.3 91 0.9 SSE 7 9 4 5 1013.3 1012.1 1.4
29/12:00am 15.8 15.1 14.2 90 0.9 S 11 15 6 8 1013.4 1012.2 1.4
 
Date/Time
EDT
Temp
°C
App
Temp
°C
Dew
Point
Rel
Hum
%
Delta-T
°C
Wind Press
QNH
hPa
Press
MSL
hPa
Rain
since 9 am
mm
Dir
 
Spd
km/h
Gust
km/h
Spd
kts
Gust
kts
28/11:30pm 16.3 16.0 14.5 89 1.0 S 9 13 5 7 1013.4 1012.2 1.4
28/11:00pm 16.5 15.5 14.7 89 1.0 SSE 13 17 7 9 1013.5 1012.4 1.4

Other Formats:

Comma delimited format used in spreadsheet applications
http://www.bom.gov.au/fwo/IDN60801/IDN60801.95758.axf

JavaScript Object Notation format (JSON) in row-major order
http://www.bom.gov.au/fwo/IDN60801/IDN60801.95758.json